sensor_id;sensor_type;location;lat;lon;timestamp;P1;durP1;ratioP1;P2;durP2;ratioP2
5630;SDS011;2837;50.990;7.124;2023-03-23T06:03:06;150.90;;;7.47;;
5630;SDS011;2837;50.990;7.124;2023-03-23T06:05:33;150.57;;;7.10;;
5630;SDS011;2837;50.990;7.124;2023-03-23T06:07:59;150.87;;;7.23;;
5630;SDS011;2837;50.990;7.124;2023-03-23T06:10:24;151.33;;;7.60;;
5630;SDS011;2837;50.990;7.124;2023-03-23T06:12:51;150.87;;;7.53;;
5630;SDS011;2837;50.990;7.124;2023-03-23T06:15:17;151.77;;;7.87;;
5630;SDS011;2837;50.990;7.124;2023-03-23T06:17:43;150.73;;;6.90;;
5630;SDS011;2837;50.990;7.124;2023-03-23T06:20:09;150.80;;;7.10;;
5630;SDS011;2837;50.990;7.124;2023-03-23T06:22:36;153.70;;;7.60;;
5630;SDS011;2837;50.990;7.124;2023-03-23T06:25:03;163.38;;;10.60;;
5630;SDS011;2837;50.990;7.124;2023-03-23T06:27:30;149.87;;;6.87;;
5630;SDS011;2837;50.990;7.124;2023-03-23T06:29:56;149.87;;;6.87;;
5630;SDS011;2837;50.990;7.124;2023-03-23T06:32:21;150.87;;;7.17;;
5630;SDS011;2837;50.990;7.124;2023-03-23T06:34:48;150.73;;;8.10;;
5630;SDS011;2837;50.990;7.124;2023-03-23T06:37:14;151.07;;;7.50;;
5630;SDS011;2837;50.990;7.124;2023-03-23T06:39:40;150.20;;;7.20;;
5630;SDS011;2837;50.990;7.124;2023-03-23T06:42:08;153.77;;;7.70;;
5630;SDS011;2837;50.990;7.124;2023-03-23T06:44:36;150.87;;;7.53;;
5630;SDS011;2837;50.990;7.124;2023-03-23T06:47:02;152.10;;;8.27;;
5630;SDS011;2837;50.990;7.124;2023-03-23T06:49:28;151.47;;;8.30;;
5630;SDS011;2837;50.990;7.124;2023-03-23T06:51:54;151.00;;;7.70;;
5630;SDS011;2837;50.990;7.124;2023-03-23T06:54:21;151.47;;;7.87;;
5630;SDS011;2837;50.990;7.124;2023-03-23T06:56:47;150.90;;;8.30;;
5630;SDS011;2837;50.990;7.124;2023-03-23T06:59:12;151.13;;;7.80;;
5630;SDS011;2837;50.990;7.124;2023-03-23T07:01:38;150.50;;;7.03;;
5630;SDS011;2837;50.990;7.124;2023-03-23T07:04:04;151.00;;;8.03;;
5630;SDS011;2837;50.990;7.124;2023-03-23T07:06:30;150.67;;;7.30;;
5630;SDS011;2837;50.990;7.124;2023-03-23T07:08:56;153.10;;;8.30;;
5630;SDS011;2837;50.990;7.124;2023-03-23T07:11:22;150.63;;;7.40;;
5630;SDS011;2837;50.990;7.124;2023-03-23T07:13:48;149.73;;;7.73;;
5630;SDS011;2837;50.990;7.124;2023-03-23T07:16:15;154.27;;;8.37;;
5630;SDS011;2837;50.990;7.124;2023-03-23T07:18:41;150.70;;;7.57;;
5630;SDS011;2837;50.990;7.124;2023-03-23T07:21:07;150.43;;;7.30;;
5630;SDS011;2837;50.990;7.124;2023-03-23T07:23:33;150.60;;;7.30;;
5630;SDS011;2837;50.990;7.124;2023-03-23T07:25:58;150.60;;;6.80;;
5630;SDS011;2837;50.990;7.124;2023-03-23T07:28:24;153.53;;;8.23;;
5630;SDS011;2837;50.990;7.124;2023-03-23T07:30:50;150.57;;;7.60;;
5630;SDS011;2837;50.990;7.124;2023-03-23T07:33:16;153.23;;;7.43;;
5630;SDS011;2837;50.990;7.124;2023-03-23T07:35:42;150.30;;;7.50;;
5630;SDS011;2837;50.990;7.124;2023-03-23T07:38:08;151.57;;;7.30;;
5630;SDS011;2837;50.990;7.124;2023-03-23T07:40:33;149.77;;;7.03;;
5630;SDS011;2837;50.990;7.124;2023-03-23T07:43:00;150.07;;;6.93;;
5630;SDS011;2837;50.990;7.124;2023-03-23T07:45:27;152.50;;;7.57;;
5630;SDS011;2837;50.990;7.124;2023-03-23T07:47:53;150.70;;;7.67;;
5630;SDS011;2837;50.990;7.124;2023-03-23T07:50:19;151.37;;;7.50;;
5630;SDS011;2837;50.990;7.124;2023-03-23T07:52:47;150.70;;;7.40;;
5630;SDS011;2837;50.990;7.124;2023-03-23T07:55:13;150.77;;;7.27;;
5630;SDS011;2837;50.990;7.124;2023-03-23T07:57:42;150.33;;;7.07;;
5630;SDS011;2837;50.990;7.124;2023-03-23T08:00:09;151.77;;;7.30;;
5630;SDS011;2837;50.990;7.124;2023-03-23T08:02:43;150.47;;;7.47;;
5630;SDS011;2837;50.990;7.124;2023-03-23T08:05:10;150.17;;;6.97;;
5630;SDS011;2837;50.990;7.124;2023-03-23T08:07:38;149.80;;;7.00;;
5630;SDS011;2837;50.990;7.124;2023-03-23T08:10:05;150.10;;;7.20;;
5630;SDS011;2837;50.990;7.124;2023-03-23T08:12:34;150.23;;;7.30;;
5630;SDS011;2837;50.990;7.124;2023-03-23T08:15:00;151.07;;;7.63;;
5630;SDS011;2837;50.990;7.124;2023-03-23T08:17:26;150.30;;;7.40;;
5630;SDS011;2837;50.990;7.124;2023-03-23T08:19:52;152.17;;;6.93;;
5630;SDS011;2837;50.990;7.124;2023-03-23T08:22:17;149.60;;;6.97;;
5630;SDS011;2837;50.990;7.124;2023-03-23T08:24:43;149.97;;;7.40;;
5630;SDS011;2837;50.990;7.124;2023-03-23T08:27:09;149.77;;;7.10;;
5630;SDS011;2837;50.990;7.124;2023-03-23T08:29:35;149.97;;;7.50;;
5630;SDS011;2837;50.990;7.124;2023-03-23T08:32:00;150.77;;;7.70;;
5630;SDS011;2837;50.990;7.124;2023-03-23T08:34:28;149.67;;;6.83;;
5630;SDS011;2837;50.990;7.124;2023-03-23T08:36:54;151.27;;;7.67;;
5630;SDS011;2837;50.990;7.124;2023-03-23T08:39:20;150.50;;;7.47;;
5630;SDS011;2837;50.990;7.124;2023-03-23T08:41:47;150.07;;;7.43;;
5630;SDS011;2837;50.990;7.124;2023-03-23T08:44:13;150.70;;;7.07;;
5630;SDS011;2837;50.990;7.124;2023-03-23T08:46:39;151.37;;;7.30;;
5630;SDS011;2837;50.990;7.124;2023-03-23T08:49:05;150.13;;;7.30;;
5630;SDS011;2837;50.990;7.124;2023-03-23T08:51:31;149.10;;;7.10;;
5630;SDS011;2837;50.990;7.124;2023-03-23T08:53:57;149.40;;;6.80;;
5630;SDS011;2837;50.990;7.124;2023-03-23T08:56:23;152.77;;;7.50;;
5630;SDS011;2837;50.990;7.124;2023-03-23T08:58:49;154.50;;;7.53;;
5630;SDS011;2837;50.990;7.124;2023-03-23T09:01:15;149.67;;;7.53;;
5630;SDS011;2837;50.990;7.124;2023-03-23T09:03:40;152.57;;;7.37;;
5630;SDS011;2837;50.990;7.124;2023-03-23T09:06:07;149.77;;;8.10;;
5630;SDS011;2837;50.990;7.124;2023-03-23T09:08:33;150.37;;;7.30;;
5630;SDS011;2837;50.990;7.124;2023-03-23T09:11:04;148.80;;;7.10;;
5630;SDS011;2837;50.990;7.124;2023-03-23T09:13:32;149.37;;;7.77;;
5630;SDS011;2837;50.990;7.124;2023-03-23T09:15:59;150.63;;;7.53;;
5630;SDS011;2837;50.990;7.124;2023-03-23T09:18:25;150.07;;;6.90;;
5630;SDS011;2837;50.990;7.124;2023-03-23T09:20:51;149.57;;;7.20;;
5630;SDS011;2837;50.990;7.124;2023-03-23T09:23:18;150.23;;;7.77;;
5630;SDS011;2837;50.990;7.124;2023-03-23T09:25:45;150.90;;;7.20;;
5630;SDS011;2837;50.990;7.124;2023-03-23T09:28:11;150.80;;;7.20;;
5630;SDS011;2837;50.990;7.124;2023-03-23T09:30:37;151.40;;;7.20;;
5630;SDS011;2837;50.990;7.124;2023-03-23T09:33:05;151.03;;;7.90;;
5630;SDS011;2837;50.990;7.124;2023-03-23T09:35:33;149.20;;;7.67;;
5630;SDS011;2837;50.990;7.124;2023-03-23T09:38:00;150.40;;;6.90;;
5630;SDS011;2837;50.990;7.124;2023-03-23T09:40:28;151.07;;;6.83;;
5630;SDS011;2837;50.990;7.124;2023-03-23T09:46:25;150.80;;;7.10;;
5630;SDS011;2837;50.990;7.124;2023-03-23T09:49:13;150.93;;;7.73;;
5630;SDS011;2837;50.990;7.124;2023-03-23T09:51:49;150.50;;;8.23;;
5630;SDS011;2837;50.990;7.124;2023-03-23T09:54:19;148.87;;;7.63;;
5630;SDS011;2837;50.990;7.124;2023-03-23T09:56:59;149.87;;;7.93;;
5630;SDS011;2837;50.990;7.124;2023-03-23T09:59:31;150.97;;;7.90;;
5630;SDS011;2837;50.990;7.124;2023-03-23T10:02:08;150.77;;;7.90;;
5630;SDS011;2837;50.990;7.124;2023-03-23T10:04:46;150.67;;;7.70;;
5630;SDS011;2837;50.990;7.124;2023-03-23T10:07:17;149.57;;;7.87;;
5630;SDS011;2837;50.990;7.124;2023-03-23T10:09:46;149.07;;;7.47;;
5630;SDS011;2837;50.990;7.124;2023-03-23T10:12:22;149.87;;;7.70;;
5630;SDS011;2837;50.990;7.124;2023-03-23T10:15:12;149.37;;;7.63;;
5630;SDS011;2837;50.990;7.124;2023-03-23T10:17:46;149.70;;;7.70;;
5630;SDS011;2837;50.990;7.124;2023-03-23T10:20:21;151.70;;;7.50;;
5630;SDS011;2837;50.990;7.124;2023-03-23T10:25:55;152.67;;;8.30;;
5630;SDS011;2837;50.990;7.124;2023-03-23T10:28:52;149.67;;;7.60;;
5630;SDS011;2837;50.990;7.124;2023-03-23T10:31:23;149.33;;;7.37;;
5630;SDS011;2837;50.990;7.124;2023-03-23T10:33:57;148.97;;;7.40;;
5630;SDS011;2837;50.990;7.124;2023-03-23T10:36:29;148.83;;;7.47;;
5630;SDS011;2837;50.990;7.124;2023-03-23T10:39:13;150.53;;;7.87;;
5630;SDS011;2837;50.990;7.124;2023-03-23T10:41:42;149.40;;;7.60;;
5630;SDS011;2837;50.990;7.124;2023-03-23T10:44:17;150.27;;;8.47;;
5630;SDS011;2837;50.990;7.124;2023-03-23T10:46:51;149.23;;;7.07;;
5630;SDS011;2837;50.990;7.124;2023-03-23T10:49:32;148.80;;;7.60;;
5630;SDS011;2837;50.990;7.124;2023-03-23T10:54:46;148.80;;;7.70;;
5630;SDS011;2837;50.990;7.124;2023-03-23T10:59:57;149.33;;;8.37;;
5630;SDS011;2837;50.990;7.124;2023-03-23T11:02:46;148.77;;;7.20;;
5630;SDS011;2837;50.990;7.124;2023-03-23T11:05:26;149.17;;;7.17;;
5630;SDS011;2837;50.990;7.124;2023-03-23T11:07:59;149.30;;;7.80;;
5630;SDS011;2837;50.990;7.124;2023-03-23T11:10:36;149.97;;;7.17;;
5630;SDS011;2837;50.990;7.124;2023-03-23T11:13:04;148.43;;;6.67;;
5630;SDS011;2837;50.990;7.124;2023-03-23T11:15:39;148.37;;;7.07;;
5630;SDS011;2837;50.990;7.124;2023-03-23T11:18:10;148.87;;;7.50;;
5630;SDS011;2837;50.990;7.124;2023-03-23T11:20:48;149.30;;;7.83;;
5630;SDS011;2837;50.990;7.124;2023-03-23T11:26:00;148.80;;;7.30;;
5630;SDS011;2837;50.990;7.124;2023-03-23T11:28:43;149.53;;;7.83;;
5630;SDS011;2837;50.990;7.124;2023-03-23T11:31:12;149.90;;;7.97;;
5630;SDS011;2837;50.990;7.124;2023-03-23T11:37:01;148.70;;;7.40;;
5630;SDS011;2837;50.990;7.124;2023-03-23T11:39:55;151.10;;;9.10;;
5630;SDS011;2837;50.990;7.124;2023-03-23T11:42:21;149.80;;;8.60;;
5630;SDS011;2837;50.990;7.124;2023-03-23T11:44:52;148.73;;;7.37;;
5630;SDS011;2837;50.990;7.124;2023-03-23T11:50:04;148.90;;;8.00;;
5630;SDS011;2837;50.990;7.124;2023-03-23T11:52:55;149.37;;;8.27;;
5630;SDS011;2837;50.990;7.124;2023-03-23T11:55:37;149.10;;;8.30;;
5630;SDS011;2837;50.990;7.124;2023-03-23T11:58:11;149.30;;;8.77;;
5630;SDS011;2837;50.990;7.124;2023-03-23T12:06:03;148.63;;;7.93;;
5630;SDS011;2837;50.990;7.124;2023-03-23T12:11:30;149.60;;;7.70;;
5630;SDS011;2837;50.990;7.124;2023-03-23T12:14:24;153.23;;;8.13;;
5630;SDS011;2837;50.990;7.124;2023-03-23T12:17:23;149.77;;;7.60;;
5630;SDS011;2837;50.990;7.124;2023-03-23T12:25:30;149.10;;;8.30;;
5630;SDS011;2837;50.990;7.124;2023-03-23T12:28:22;149.67;;;8.67;;
5630;SDS011;2837;50.990;7.124;2023-03-23T12:45:21;149.57;;;8.83;;
5630;SDS011;2837;50.990;7.124;2023-03-23T12:48:18;148.57;;;8.80;;
5630;SDS011;2837;50.990;7.124;2023-03-23T12:53:55;150.27;;;9.67;;
5630;SDS011;2837;50.990;7.124;2023-03-23T12:56:51;150.67;;;9.03;;
5630;SDS011;2837;50.990;7.124;2023-03-23T12:59:43;149.93;;;9.33;;
5630;SDS011;2837;50.990;7.124;2023-03-23T13:05:00;148.40;;;8.37;;
5630;SDS011;2837;50.990;7.124;2023-03-23T13:07:33;149.00;;;8.63;;
5630;SDS011;2837;50.990;7.124;2023-03-23T13:10:03;150.17;;;9.30;;
5630;SDS011;2837;50.990;7.124;2023-03-23T13:12:37;150.53;;;9.00;;
5630;SDS011;2837;50.990;7.124;2023-03-23T13:16:06;149.03;;;8.50;;
5630;SDS011;2837;50.990;7.124;2023-03-23T13:23:56;149.87;;;8.93;;
5630;SDS011;2837;50.990;7.124;2023-03-23T13:26:28;149.60;;;9.00;;
5630;SDS011;2837;50.990;7.124;2023-03-23T13:28:59;150.87;;;9.30;;
5630;SDS011;2837;50.990;7.124;2023-03-23T13:31:30;153.20;;;8.60;;
5630;SDS011;2837;50.990;7.124;2023-03-23T13:33:59;149.97;;;9.77;;
5630;SDS011;2837;50.990;7.124;2023-03-23T13:36:27;150.07;;;8.80;;
5630;SDS011;2837;50.990;7.124;2023-03-23T13:38:57;149.97;;;8.60;;
5630;SDS011;2837;50.990;7.124;2023-03-23T13:41:24;149.60;;;8.73;;
5630;SDS011;2837;50.990;7.124;2023-03-23T13:43:51;150.20;;;9.30;;
5630;SDS011;2837;50.990;7.124;2023-03-23T13:48:43;150.77;;;9.13;;
5630;SDS011;2837;50.990;7.124;2023-03-23T13:51:32;149.40;;;9.00;;
5630;SDS011;2837;50.990;7.124;2023-03-23T13:54:31;149.47;;;8.70;;
5630;SDS011;2837;50.990;7.124;2023-03-23T14:00:25;148.30;;;8.40;;
5630;SDS011;2837;50.990;7.124;2023-03-23T14:02:59;153.20;;;8.93;;
5630;SDS011;2837;50.990;7.124;2023-03-23T14:05:41;150.17;;;9.20;;
5630;SDS011;2837;50.990;7.124;2023-03-23T14:15:59;148.80;;;8.10;;
5630;SDS011;2837;50.990;7.124;2023-03-23T14:18:36;149.60;;;9.07;;
5630;SDS011;2837;50.990;7.124;2023-03-23T14:21:04;149.13;;;8.93;;
5630;SDS011;2837;50.990;7.124;2023-03-23T14:23:37;149.03;;;8.57;;
5630;SDS011;2837;50.990;7.124;2023-03-23T14:26:09;149.43;;;9.13;;
5630;SDS011;2837;50.990;7.124;2023-03-23T14:28:39;150.83;;;9.27;;
5630;SDS011;2837;50.990;7.124;2023-03-23T14:31:15;151.37;;;10.00;;
5630;SDS011;2837;50.990;7.124;2023-03-23T14:33:42;149.67;;;9.90;;
5630;SDS011;2837;50.990;7.124;2023-03-23T14:36:08;151.63;;;8.70;;
5630;SDS011;2837;50.990;7.124;2023-03-23T14:38:34;150.70;;;9.77;;
5630;SDS011;2837;50.990;7.124;2023-03-23T14:41:03;153.27;;;9.40;;
5630;SDS011;2837;50.990;7.124;2023-03-23T14:43:29;152.43;;;10.20;;
5630;SDS011;2837;50.990;7.124;2023-03-23T14:45:59;148.97;;;8.63;;
5630;SDS011;2837;50.990;7.124;2023-03-23T14:48:26;150.17;;;9.90;;
5630;SDS011;2837;50.990;7.124;2023-03-23T14:51:00;150.40;;;9.70;;
5630;SDS011;2837;50.990;7.124;2023-03-23T14:56:08;149.67;;;9.50;;
5630;SDS011;2837;50.990;7.124;2023-03-23T14:58:38;149.40;;;8.80;;
5630;SDS011;2837;50.990;7.124;2023-03-23T15:01:10;154.67;;;9.70;;
5630;SDS011;2837;50.990;7.124;2023-03-23T15:03:39;149.63;;;9.43;;
5630;SDS011;2837;50.990;7.124;2023-03-23T15:06:15;149.67;;;9.60;;
5630;SDS011;2837;50.990;7.124;2023-03-23T15:08:43;150.77;;;8.90;;
5630;SDS011;2837;50.990;7.124;2023-03-23T15:13:44;149.40;;;8.63;;
5630;SDS011;2837;50.990;7.124;2023-03-23T15:16:30;149.47;;;9.57;;
5630;SDS011;2837;50.990;7.124;2023-03-23T15:19:04;150.80;;;9.43;;
5630;SDS011;2837;50.990;7.124;2023-03-23T15:21:45;151.47;;;9.20;;
5630;SDS011;2837;50.990;7.124;2023-03-23T15:26:45;151.00;;;8.20;;
5630;SDS011;2837;50.990;7.124;2023-03-23T15:29:12;149.40;;;8.40;;
5630;SDS011;2837;50.990;7.124;2023-03-23T15:31:45;150.87;;;8.17;;
5630;SDS011;2837;50.990;7.124;2023-03-23T15:34:33;154.67;;;9.70;;
5630;SDS011;2837;50.990;7.124;2023-03-23T15:37:05;149.77;;;9.73;;
5630;SDS011;2837;50.990;7.124;2023-03-23T15:39:44;149.87;;;9.10;;
5630;SDS011;2837;50.990;7.124;2023-03-23T15:42:20;149.67;;;9.03;;
5630;SDS011;2837;50.990;7.124;2023-03-23T15:44:58;150.00;;;9.60;;
5630;SDS011;2837;50.990;7.124;2023-03-23T15:50:15;148.57;;;8.80;;
5630;SDS011;2837;50.990;7.124;2023-03-23T15:52:41;152.63;;;9.53;;
5630;SDS011;2837;50.990;7.124;2023-03-23T15:55:21;149.93;;;9.33;;
5630;SDS011;2837;50.990;7.124;2023-03-23T15:57:50;150.50;;;10.60;;
5630;SDS011;2837;50.990;7.124;2023-03-23T16:00:18;150.53;;;9.50;;
5630;SDS011;2837;50.990;7.124;2023-03-23T16:02:46;151.50;;;10.30;;
5630;SDS011;2837;50.990;7.124;2023-03-23T16:05:13;150.07;;;9.50;;
5630;SDS011;2837;50.990;7.124;2023-03-23T16:07:39;152.70;;;10.33;;
5630;SDS011;2837;50.990;7.124;2023-03-23T16:10:05;150.70;;;10.33;;
5630;SDS011;2837;50.990;7.124;2023-03-23T16:12:38;150.53;;;9.70;;
5630;SDS011;2837;50.990;7.124;2023-03-23T16:15:04;152.40;;;9.70;;
5630;SDS011;2837;50.990;7.124;2023-03-23T16:17:30;152.00;;;11.00;;
5630;SDS011;2837;50.990;7.124;2023-03-23T16:19:57;152.00;;;9.30;;
5630;SDS011;2837;50.990;7.124;2023-03-23T16:22:22;149.90;;;9.80;;
5630;SDS011;2837;50.990;7.124;2023-03-23T16:24:48;152.27;;;9.87;;
5630;SDS011;2837;50.990;7.124;2023-03-23T16:27:13;153.90;;;10.70;;
5630;SDS011;2837;50.990;7.124;2023-03-23T16:29:39;150.17;;;10.40;;
5630;SDS011;2837;50.990;7.124;2023-03-23T16:32:04;150.47;;;9.93;;
5630;SDS011;2837;50.990;7.124;2023-03-23T16:34:30;150.37;;;9.50;;
5630;SDS011;2837;50.990;7.124;2023-03-23T16:36:57;150.57;;;9.47;;
5630;SDS011;2837;50.990;7.124;2023-03-23T16:39:23;150.17;;;9.87;;
5630;SDS011;2837;50.990;7.124;2023-03-23T16:41:48;150.87;;;9.87;;
5630;SDS011;2837;50.990;7.124;2023-03-23T16:44:14;150.03;;;9.50;;
5630;SDS011;2837;50.990;7.124;2023-03-23T16:46:40;150.57;;;9.77;;
5630;SDS011;2837;50.990;7.124;2023-03-23T16:49:06;150.20;;;9.40;;
5630;SDS011;2837;50.990;7.124;2023-03-23T16:51:31;149.70;;;9.90;;
5630;SDS011;2837;50.990;7.124;2023-03-23T16:53:57;149.27;;;9.43;;
5630;SDS011;2837;50.990;7.124;2023-03-23T16:56:22;149.60;;;9.17;;
5630;SDS011;2837;50.990;7.124;2023-03-23T16:58:48;153.23;;;9.03;;
5630;SDS011;2837;50.990;7.124;2023-03-23T17:01:14;152.20;;;9.90;;
5630;SDS011;2837;50.990;7.124;2023-03-23T17:03:40;151.07;;;9.33;;
5630;SDS011;2837;50.990;7.124;2023-03-23T17:06:07;151.27;;;8.90;;
5630;SDS011;2837;50.990;7.124;2023-03-23T17:08:33;150.27;;;8.90;;
5630;SDS011;2837;50.990;7.124;2023-03-23T17:10:59;150.90;;;8.77;;
5630;SDS011;2837;50.990;7.124;2023-03-23T17:13:25;151.10;;;9.27;;
5630;SDS011;2837;50.990;7.124;2023-03-23T17:15:52;150.63;;;9.50;;
5630;SDS011;2837;50.990;7.124;2023-03-23T17:18:20;152.40;;;10.03;;
5630;SDS011;2837;50.990;7.124;2023-03-23T17:20:46;149.70;;;8.70;;
5630;SDS011;2837;50.990;7.124;2023-03-23T17:23:12;150.67;;;9.27;;
5630;SDS011;2837;50.990;7.124;2023-03-23T17:25:38;149.40;;;8.50;;
5630;SDS011;2837;50.990;7.124;2023-03-23T17:28:04;149.80;;;8.33;;
5630;SDS011;2837;50.990;7.124;2023-03-23T17:30:30;149.47;;;8.37;;
5630;SDS011;2837;50.990;7.124;2023-03-23T17:32:55;150.27;;;9.60;;
5630;SDS011;2837;50.990;7.124;2023-03-23T17:35:21;151.47;;;9.03;;
5630;SDS011;2837;50.990;7.124;2023-03-23T17:37:46;150.00;;;7.77;;
5630;SDS011;2837;50.990;7.124;2023-03-23T17:40:12;151.77;;;8.60;;
5630;SDS011;2837;50.990;7.124;2023-03-23T17:42:38;150.07;;;7.80;;
5630;SDS011;2837;50.990;7.124;2023-03-23T17:45:05;152.80;;;8.70;;
5630;SDS011;2837;50.990;7.124;2023-03-23T17:47:32;151.20;;;7.67;;
5630;SDS011;2837;50.990;7.124;2023-03-23T17:49:57;150.67;;;7.40;;
5630;SDS011;2837;50.990;7.124;2023-03-23T17:52:23;149.80;;;7.77;;
5630;SDS011;2837;50.990;7.124;2023-03-23T17:54:49;151.77;;;8.33;;
5630;SDS011;2837;50.990;7.124;2023-03-23T17:57:14;151.37;;;8.67;;
5630;SDS011;2837;50.990;7.124;2023-03-23T17:59:41;152.73;;;7.97;;
5630;SDS011;2837;50.990;7.124;2023-03-23T18:02:06;150.93;;;7.70;;
5630;SDS011;2837;50.990;7.124;2023-03-23T18:04:32;151.73;;;8.30;;
5630;SDS011;2837;50.990;7.124;2023-03-23T18:06:58;150.17;;;7.77;;
5630;SDS011;2837;50.990;7.124;2023-03-23T18:09:24;149.77;;;7.90;;
5630;SDS011;2837;50.990;7.124;2023-03-23T18:11:50;151.07;;;8.27;;
5630;SDS011;2837;50.990;7.124;2023-03-23T18:14:16;151.13;;;7.83;;
5630;SDS011;2837;50.990;7.124;2023-03-23T18:16:43;150.47;;;7.50;;
5630;SDS011;2837;50.990;7.124;2023-03-23T18:19:08;150.83;;;7.63;;
5630;SDS011;2837;50.990;7.124;2023-03-23T18:21:34;152.40;;;8.70;;
5630;SDS011;2837;50.990;7.124;2023-03-23T18:24:00;151.57;;;7.70;;
5630;SDS011;2837;50.990;7.124;2023-03-23T18:26:26;150.80;;;7.50;;
5630;SDS011;2837;50.990;7.124;2023-03-23T18:28:52;157.77;;;7.97;;
5630;SDS011;2837;50.990;7.124;2023-03-23T18:31:18;151.47;;;7.73;;
5630;SDS011;2837;50.990;7.124;2023-03-23T18:33:45;149.97;;;7.30;;
5630;SDS011;2837;50.990;7.124;2023-03-23T18:36:13;150.67;;;7.57;;
5630;SDS011;2837;50.990;7.124;2023-03-23T18:38:39;153.87;;;8.17;;
5630;SDS011;2837;50.990;7.124;2023-03-23T18:41:08;150.97;;;7.30;;
5630;SDS011;2837;50.990;7.124;2023-03-23T18:43:35;150.57;;;8.03;;
5630;SDS011;2837;50.990;7.124;2023-03-23T18:46:00;150.43;;;7.33;;
5630;SDS011;2837;50.990;7.124;2023-03-23T18:48:26;150.90;;;7.50;;
5630;SDS011;2837;50.990;7.124;2023-03-23T18:50:53;149.43;;;7.10;;
5630;SDS011;2837;50.990;7.124;2023-03-23T18:53:20;151.27;;;7.20;;
5630;SDS011;2837;50.990;7.124;2023-03-23T18:55:47;151.70;;;7.80;;
5630;SDS011;2837;50.990;7.124;2023-03-23T18:58:13;150.37;;;7.77;;
5630;SDS011;2837;50.990;7.124;2023-03-23T19:00:40;151.33;;;8.50;;
5630;SDS011;2837;50.990;7.124;2023-03-23T19:03:06;152.40;;;8.07;;
5630;SDS011;2837;50.990;7.124;2023-03-23T19:05:33;150.37;;;7.77;;
5630;SDS011;2837;50.990;7.124;2023-03-23T19:08:01;154.67;;;8.73;;
5630;SDS011;2837;50.990;7.124;2023-03-23T19:10:28;153.20;;;8.20;;
5630;SDS011;2837;50.990;7.124;2023-03-23T19:12:54;151.13;;;8.43;;
5630;SDS011;2837;50.990;7.124;2023-03-23T19:15:19;149.73;;;7.90;;
5630;SDS011;2837;50.990;7.124;2023-03-23T19:17:45;151.90;;;8.30;;
5630;SDS011;2837;50.990;7.124;2023-03-23T19:20:11;154.97;;;7.80;;
5630;SDS011;2837;50.990;7.124;2023-03-23T19:22:40;152.43;;;7.90;;
5630;SDS011;2837;50.990;7.124;2023-03-23T19:25:06;151.40;;;8.10;;
5630;SDS011;2837;50.990;7.124;2023-03-23T19:27:33;152.47;;;8.50;;
5630;SDS011;2837;50.990;7.124;2023-03-23T19:30:00;154.30;;;8.10;;
5630;SDS011;2837;50.990;7.124;2023-03-23T19:32:25;152.27;;;8.00;;
5630;SDS011;2837;50.990;7.124;2023-03-23T19:34:51;150.40;;;7.30;;
5630;SDS011;2837;50.990;7.124;2023-03-23T19:37:18;150.90;;;7.10;;
5630;SDS011;2837;50.990;7.124;2023-03-23T19:39:44;151.17;;;7.63;;
5630;SDS011;2837;50.990;7.124;2023-03-23T19:42:09;152.10;;;7.93;;
5630;SDS011;2837;50.990;7.124;2023-03-23T19:44:35;150.77;;;7.70;;
5630;SDS011;2837;50.990;7.124;2023-03-23T19:47:01;150.17;;;7.80;;
5630;SDS011;2837;50.990;7.124;2023-03-23T19:49:26;153.73;;;8.60;;
5630;SDS011;2837;50.990;7.124;2023-03-23T19:51:52;150.63;;;7.67;;
5630;SDS011;2837;50.990;7.124;2023-03-23T19:54:19;151.67;;;7.60;;
5630;SDS011;2837;50.990;7.124;2023-03-23T19:56:45;151.27;;;7.73;;
5630;SDS011;2837;50.990;7.124;2023-03-23T19:59:11;161.13;;;8.20;;
5630;SDS011;2837;50.990;7.124;2023-03-23T20:01:39;152.17;;;8.00;;
5630;SDS011;2837;50.990;7.124;2023-03-23T20:04:05;152.10;;;7.57;;
5630;SDS011;2837;50.990;7.124;2023-03-23T20:06:32;150.87;;;7.80;;
5630;SDS011;2837;50.990;7.124;2023-03-23T20:08:58;151.17;;;7.50;;
5630;SDS011;2837;50.990;7.124;2023-03-23T20:11:24;151.37;;;8.30;;
5630;SDS011;2837;50.990;7.124;2023-03-23T20:13:49;150.57;;;8.10;;
5630;SDS011;2837;50.990;7.124;2023-03-23T20:16:15;152.07;;;8.17;;
5630;SDS011;2837;50.990;7.124;2023-03-23T20:18:42;149.77;;;7.50;;
5630;SDS011;2837;50.990;7.124;2023-03-23T20:21:09;150.77;;;7.73;;
5630;SDS011;2837;50.990;7.124;2023-03-23T20:23:39;152.33;;;8.00;;
5630;SDS011;2837;50.990;7.124;2023-03-23T20:26:10;150.43;;;7.57;;
5630;SDS011;2837;50.990;7.124;2023-03-23T20:28:38;157.90;;;8.20;;
5630;SDS011;2837;50.990;7.124;2023-03-23T20:31:05;150.57;;;8.00;;
5630;SDS011;2837;50.990;7.124;2023-03-23T20:33:31;150.10;;;7.90;;
5630;SDS011;2837;50.990;7.124;2023-03-23T20:35:57;149.87;;;7.13;;
5630;SDS011;2837;50.990;7.124;2023-03-23T20:38:24;151.20;;;8.10;;
5630;SDS011;2837;50.990;7.124;2023-03-23T20:40:51;151.13;;;8.50;;
5630;SDS011;2837;50.990;7.124;2023-03-23T20:43:19;148.83;;;6.97;;
5630;SDS011;2837;50.990;7.124;2023-03-23T20:45:45;149.83;;;7.00;;
5630;SDS011;2837;50.990;7.124;2023-03-23T20:48:10;151.17;;;7.43;;
5630;SDS011;2837;50.990;7.124;2023-03-23T20:50:36;153.20;;;7.93;;
5630;SDS011;2837;50.990;7.124;2023-03-23T20:53:01;149.57;;;7.80;;
5630;SDS011;2837;50.990;7.124;2023-03-23T20:55:27;150.10;;;7.40;;
5630;SDS011;2837;50.990;7.124;2023-03-23T20:57:53;151.27;;;7.60;;
5630;SDS011;2837;50.990;7.124;2023-03-23T21:00:19;154.07;;;8.73;;
5630;SDS011;2837;50.990;7.124;2023-03-23T21:02:45;150.30;;;8.00;;
5630;SDS011;2837;50.990;7.124;2023-03-23T21:05:13;151.43;;;8.00;;
5630;SDS011;2837;50.990;7.124;2023-03-23T21:07:39;149.80;;;7.70;;
5630;SDS011;2837;50.990;7.124;2023-03-23T21:10:06;150.97;;;8.30;;
5630;SDS011;2837;50.990;7.124;2023-03-23T21:12:32;150.63;;;7.77;;
5630;SDS011;2837;50.990;7.124;2023-03-23T21:14:57;150.07;;;7.60;;
5630;SDS011;2837;50.990;7.124;2023-03-23T21:17:23;153.57;;;8.40;;
5630;SDS011;2837;50.990;7.124;2023-03-23T21:19:48;150.60;;;8.30;;
5630;SDS011;2837;50.990;7.124;2023-03-23T21:22:14;149.60;;;7.60;;
5630;SDS011;2837;50.990;7.124;2023-03-23T21:24:42;150.27;;;8.00;;
5630;SDS011;2837;50.990;7.124;2023-03-23T21:27:10;150.77;;;8.03;;
5630;SDS011;2837;50.990;7.124;2023-03-23T21:29:36;149.33;;;7.13;;
5630;SDS011;2837;50.990;7.124;2023-03-23T21:32:02;151.00;;;8.47;;
5630;SDS011;2837;50.990;7.124;2023-03-23T21:34:29;151.10;;;7.50;;
5630;SDS011;2837;50.990;7.124;2023-03-23T21:36:55;149.73;;;7.33;;
5630;SDS011;2837;50.990;7.124;2023-03-23T21:39:20;150.43;;;7.83;;
5630;SDS011;2837;50.990;7.124;2023-03-23T21:41:46;149.53;;;8.33;;
5630;SDS011;2837;50.990;7.124;2023-03-23T21:44:13;151.97;;;8.27;;
5630;SDS011;2837;50.990;7.124;2023-03-23T21:46:39;151.30;;;7.93;;
5630;SDS011;2837;50.990;7.124;2023-03-23T21:49:06;148.97;;;7.07;;
5630;SDS011;2837;50.990;7.124;2023-03-23T21:51:38;150.13;;;8.00;;
5630;SDS011;2837;50.990;7.124;2023-03-23T21:54:04;150.77;;;7.77;;
5630;SDS011;2837;50.990;7.124;2023-03-23T21:56:30;149.87;;;7.17;;
5630;SDS011;2837;50.990;7.124;2023-03-23T21:58:56;149.30;;;7.80;;
